sensor_id;sensor_type;location;lat;lon;timestamp;pressure;altitude;pressure_sealevel;temperature;humidity
65376;BME280;51976;47.332;9.404;2022-08-19T00:00:34;92590.06;;;22.39;54.18
65376;BME280;51976;47.332;9.404;2022-08-19T00:02:59;92584.94;;;22.37;54.37
65376;BME280;51976;47.332;9.404;2022-08-19T00:05:25;92590.88;;;22.39;54.30
65376;BME280;51976;47.332;9.404;2022-08-19T00:07:51;92583.00;;;22.38;54.07
65376;BME280;51976;47.332;9.404;2022-08-19T00:10:18;92584.94;;;22.37;54.30
65376;BME280;51976;47.332;9.404;2022-08-19T00:12:44;92583.34;;;22.36;54.38
65376;BME280;51976;47.332;9.404;2022-08-19T00:15:11;92586.91;;;22.37;54.22
65376;BME280;51976;47.332;9.404;2022-08-19T00:17:40;92586.09;;;22.36;54.06
65376;BME280;51976;47.332;9.404;2022-08-19T00:20:06;92585.31;;;22.36;54.06
65376;BME280;51976;47.332;9.404;2022-08-19T00:22:32;92582.56;;;22.36;54.17
65376;BME280;51976;47.332;9.404;2022-08-19T00:24:58;92577.88;;;22.36;54.21
65376;BME280;51976;47.332;9.404;2022-08-19T00:27:23;92579.03;;;22.35;54.24
65376;BME280;51976;47.332;9.404;2022-08-19T00:29:49;92583.34;;;22.36;54.07
65376;BME280;51976;47.332;9.404;2022-08-19T00:32:16;92580.16;;;22.34;54.07
65376;BME280;51976;47.332;9.404;2022-08-19T00:34:41;92579.03;;;22.35;53.97
65376;BME280;51976;47.332;9.404;2022-08-19T00:37:07;92580.16;;;22.34;54.19
65376;BME280;51976;47.332;9.404;2022-08-19T00:39:32;92588.06;;;22.36;54.06
65376;BME280;51976;47.332;9.404;2022-08-19T00:41:58;92589.22;;;22.35;53.91
65376;BME280;51976;47.332;9.404;2022-08-19T00:44:26;92587.63;;;22.34;54.07
65376;BME280;51976;47.332;9.404;2022-08-19T00:46:54;92587.25;;;22.35;53.97
65376;BME280;51976;47.332;9.404;2022-08-19T00:49:23;92575.41;;;22.31;53.78
65376;BME280;51976;47.332;9.404;2022-08-19T00:51:54;92580.97;;;22.35;54.21
65376;BME280;51976;47.332;9.404;2022-08-19T00:54:21;92576.63;;;22.34;53.98
65376;BME280;51976;47.332;9.404;2022-08-19T00:56:48;92577.00;;;22.32;54.24
65376;BME280;51976;47.332;9.404;2022-08-19T00:59:16;92575.84;;;22.33;54.00
65376;BME280;51976;47.332;9.404;2022-08-19T01:01:44;92568.75;;;22.32;53.79
65376;BME280;51976;47.332;9.404;2022-08-19T01:04:10;92563.25;;;22.32;54.11
65376;BME280;51976;47.332;9.404;2022-08-19T01:06:36;92566.44;;;22.34;53.78
65376;BME280;51976;47.332;9.404;2022-08-19T01:09:03;92562.47;;;22.32;53.94
65376;BME280;51976;47.332;9.404;2022-08-19T01:11:31;92567.16;;;22.31;53.86
65376;BME280;51976;47.332;9.404;2022-08-19T01:13:58;92564.41;;;22.31;53.99
65376;BME280;51976;47.332;9.404;2022-08-19T01:16:25;92564.78;;;22.29;53.82
65376;BME280;51976;47.332;9.404;2022-08-19T01:18:52;92562.03;;;22.29;53.87
65376;BME280;51976;47.332;9.404;2022-08-19T01:21:40;92564.78;;;22.29;54.19
65376;BME280;51976;47.332;9.404;2022-08-19T01:24:07;92573.00;;;22.29;53.88
65376;BME280;51976;47.332;9.404;2022-08-19T01:26:39;92582.03;;;22.30;54.10
65376;BME280;51976;47.332;9.404;2022-08-19T01:29:07;92575.75;;;22.29;54.04
65376;BME280;51976;47.332;9.404;2022-08-19T01:31:34;92576.13;;;22.28;54.02
65376;BME280;51976;47.332;9.404;2022-08-19T01:34:00;92571.06;;;22.30;53.90
65376;BME280;51976;47.332;9.404;2022-08-19T01:36:38;92569.47;;;22.29;54.05
65376;BME280;51976;47.332;9.404;2022-08-19T01:39:07;92579.66;;;22.28;53.90
65376;BME280;51976;47.332;9.404;2022-08-19T01:41:34;92569.47;;;22.29;53.81
65376;BME280;51976;47.332;9.404;2022-08-19T01:44:00;92564.34;;;22.27;53.97
65376;BME280;51976;47.332;9.404;2022-08-19T01:46:29;92569.47;;;22.29;54.12
65376;BME280;51976;47.332;9.404;2022-08-19T01:48:55;92558.06;;;22.27;54.10
65376;BME280;51976;47.332;9.404;2022-08-19T01:51:20;92556.91;;;22.28;53.89
65376;BME280;51976;47.332;9.404;2022-08-19T01:53:50;92555.75;;;22.29;53.85
65376;BME280;51976;47.332;9.404;2022-08-19T01:56:17;92552.91;;;22.25;54.02
65376;BME280;51976;47.332;9.404;2022-08-19T01:58:51;92545.47;;;22.26;53.71
65376;BME280;51976;47.332;9.404;2022-08-19T02:01:19;92532.53;;;22.26;53.83
65376;BME280;51976;47.332;9.404;2022-08-19T02:03:44;92530.59;;;22.27;53.92
65376;BME280;51976;47.332;9.404;2022-08-19T02:06:11;92531.75;;;22.26;54.08
65376;BME280;51976;47.332;9.404;2022-08-19T02:08:38;92546.63;;;22.25;53.84
65376;BME280;51976;47.332;9.404;2022-08-19T02:11:05;92542.72;;;22.26;53.70
65376;BME280;51976;47.332;9.404;2022-08-19T02:13:32;92531.75;;;22.26;54.06
65376;BME280;51976;47.332;9.404;2022-08-19T02:15:58;92527.84;;;22.27;53.66
65376;BME280;51976;47.332;9.404;2022-08-19T02:18:24;92527.41;;;22.25;53.98
65376;BME280;51976;47.332;9.404;2022-08-19T02:20:49;92530.16;;;22.25;53.78
65376;BME280;51976;47.332;9.404;2022-08-19T02:23:16;92528.22;;;22.25;53.65
65376;BME280;51976;47.332;9.404;2022-08-19T02:25:44;92530.16;;;22.25;53.75
65376;BME280;51976;47.332;9.404;2022-08-19T02:28:10;92537.59;;;22.24;53.75
65376;BME280;51976;47.332;9.404;2022-08-19T02:30:37;92546.63;;;22.25;53.79
65376;BME280;51976;47.332;9.404;2022-08-19T02:33:04;92552.13;;;22.25;53.75
65376;BME280;51976;47.332;9.404;2022-08-19T02:35:30;92552.13;;;22.25;53.85
65376;BME280;51976;47.332;9.404;2022-08-19T02:37:56;92549.03;;;22.26;53.75
65376;BME280;51976;47.332;9.404;2022-08-19T02:40:49;92549.38;;;22.25;53.73
65376;BME280;51976;47.332;9.404;2022-08-19T02:43:16;92550.53;;;22.24;53.79
65376;BME280;51976;47.332;9.404;2022-08-19T02:45:42;92544.59;;;22.22;53.88
65376;BME280;51976;47.332;9.404;2022-08-19T02:48:08;92541.06;;;22.21;53.90
65376;BME280;51976;47.332;9.404;2022-08-19T02:50:37;92545.84;;;22.24;53.80
65376;BME280;51976;47.332;9.404;2022-08-19T02:53:02;92541.06;;;22.21;53.95
65376;BME280;51976;47.332;9.404;2022-08-19T02:55:28;92547.34;;;22.22;53.67
65376;BME280;51976;47.332;9.404;2022-08-19T02:57:53;92548.94;;;22.23;53.71
65376;BME280;51976;47.332;9.404;2022-08-19T03:00:19;92542.66;;;22.22;53.68
65376;BME280;51976;47.332;9.404;2022-08-19T03:02:45;92534.00;;;22.20;53.67
65376;BME280;51976;47.332;9.404;2022-08-19T03:05:12;92542.66;;;22.22;53.75
65376;BME280;51976;47.332;9.404;2022-08-19T03:07:38;92548.16;;;22.22;53.91
65376;BME280;51976;47.332;9.404;2022-08-19T03:10:04;92546.19;;;22.23;53.88
65376;BME280;51976;47.332;9.404;2022-08-19T03:12:30;92545.75;;;22.21;53.84
65376;BME280;51976;47.332;9.404;2022-08-19T03:14:55;92520.41;;;22.08;53.64
65376;BME280;51976;47.332;9.404;2022-08-19T03:17:21;92538.31;;;22.21;53.80
65376;BME280;51976;47.332;9.404;2022-08-19T03:19:46;92540.28;;;22.21;53.72
65376;BME280;51976;47.332;9.404;2022-08-19T03:22:12;92550.09;;;22.22;53.93
65376;BME280;51976;47.332;9.404;2022-08-19T03:24:38;92540.28;;;22.21;53.73
65376;BME280;51976;47.332;9.404;2022-08-19T03:27:04;92541.44;;;22.20;53.60
65376;BME280;51976;47.332;9.404;2022-08-19T03:29:30;92535.13;;;22.19;53.74
65376;BME280;51976;47.332;9.404;2022-08-19T03:32:01;92533.19;;;22.20;53.62
65376;BME280;51976;47.332;9.404;2022-08-19T03:34:29;92517.06;;;22.18;53.81
65376;BME280;51976;47.332;9.404;2022-08-19T03:36:57;92523.00;;;22.20;53.57
65376;BME280;51976;47.332;9.404;2022-08-19T03:39:24;92519.47;;;22.20;53.80
65376;BME280;51976;47.332;9.404;2022-08-19T03:41:53;92517.50;;;22.20;53.78
65376;BME280;51976;47.332;9.404;2022-08-19T03:44:21;92515.91;;;22.19;53.53
65376;BME280;51976;47.332;9.404;2022-08-19T03:46:50;92513.19;;;22.19;53.88
65376;BME280;51976;47.332;9.404;2022-08-19T03:49:17;92515.91;;;22.19;53.69
65376;BME280;51976;47.332;9.404;2022-08-19T03:51:43;92508.03;;;22.18;53.55
65376;BME280;51976;47.332;9.404;2022-08-19T03:54:11;92505.31;;;22.18;54.03
65376;BME280;51976;47.332;9.404;2022-08-19T03:56:39;92498.66;;;22.19;53.79
65376;BME280;51976;47.332;9.404;2022-08-19T03:59:07;92497.84;;;22.18;53.71
65376;BME280;51976;47.332;9.404;2022-08-19T04:01:34;92500.25;;;22.20;53.69
65376;BME280;51976;47.332;9.404;2022-08-19T04:04:00;92497.84;;;22.18;53.68
65376;BME280;51976;47.332;9.404;2022-08-19T04:06:30;92490.41;;;22.19;53.81
65376;BME280;51976;47.332;9.404;2022-08-19T04:08:57;92492.38;;;22.18;53.71
65376;BME280;51976;47.332;9.404;2022-08-19T04:11:26;92494.31;;;22.18;53.87
65376;BME280;51976;47.332;9.404;2022-08-19T04:13:53;92498.66;;;22.19;53.51
65376;BME280;51976;47.332;9.404;2022-08-19T04:16:21;92510.00;;;22.17;53.76
65376;BME280;51976;47.332;9.404;2022-08-19T04:18:48;92510.44;;;22.19;53.69
65376;BME280;51976;47.332;9.404;2022-08-19T04:21:20;92514.34;;;22.18;53.73
65376;BME280;51976;47.332;9.404;2022-08-19T04:23:47;92503.34;;;22.18;53.84
65376;BME280;51976;47.332;9.404;2022-08-19T04:26:17;92519.03;;;22.18;53.67
65376;BME280;51976;47.332;9.404;2022-08-19T04:28:44;92519.81;;;22.18;53.58
65376;BME280;51976;47.332;9.404;2022-08-19T04:31:14;92511.94;;;22.17;53.72
65376;BME280;51976;47.332;9.404;2022-08-19T04:33:40;92527.63;;;22.16;53.51
65376;BME280;51976;47.332;9.404;2022-08-19T04:36:06;92523.72;;;22.17;53.52
65376;BME280;51976;47.332;9.404;2022-08-19T04:38:32;92533.13;;;22.16;53.60
65376;BME280;51976;47.332;9.404;2022-08-19T04:40:58;92534.69;;;22.17;53.43
65376;BME280;51976;47.332;9.404;2022-08-19T04:43:44;92537.44;;;22.17;53.65
65376;BME280;51976;47.332;9.404;2022-08-19T04:46:13;92538.59;;;22.16;53.82
65376;BME280;51976;47.332;9.404;2022-08-19T04:48:39;92546.03;;;22.16;53.80
65376;BME280;51976;47.332;9.404;2022-08-19T04:51:10;92546.03;;;22.16;53.84
65376;BME280;51976;47.332;9.404;2022-08-19T04:53:38;92542.16;;;22.17;53.84
65376;BME280;51976;47.332;9.404;2022-08-19T04:56:08;92542.16;;;22.17;53.45
65376;BME280;51976;47.332;9.404;2022-08-19T04:58:35;92552.72;;;22.15;53.82
65376;BME280;51976;47.332;9.404;2022-08-19T05:01:00;92558.22;;;22.15;53.72
65376;BME280;51976;47.332;9.404;2022-08-19T05:03:26;92565.25;;;22.16;53.84
65376;BME280;51976;47.332;9.404;2022-08-19T05:05:52;92565.25;;;22.16;53.50
65376;BME280;51976;47.332;9.404;2022-08-19T05:08:20;92568.81;;;22.16;53.45
65376;BME280;51976;47.332;9.404;2022-08-19T05:10:48;92560.97;;;22.15;53.71
65376;BME280;51976;47.332;9.404;2022-08-19T05:13:14;92572.34;;;22.17;53.67
65376;BME280;51976;47.332;9.404;2022-08-19T05:15:41;92564.50;;;22.15;53.67
65376;BME280;51976;47.332;9.404;2022-08-19T05:18:07;92571.56;;;22.16;53.55
65376;BME280;51976;47.332;9.404;2022-08-19T05:20:53;92564.50;;;22.15;53.71
65376;BME280;51976;47.332;9.404;2022-08-19T05:23:38;92572.34;;;22.17;53.67
65376;BME280;51976;47.332;9.404;2022-08-19T05:26:04;92574.69;;;22.15;53.68
65376;BME280;51976;47.332;9.404;2022-08-19T05:28:30;92574.69;;;22.15;53.61
65376;BME280;51976;47.332;9.404;2022-08-19T05:30:55;92572.75;;;22.15;53.42
65376;BME280;51976;47.332;9.404;2022-08-19T05:33:22;92580.53;;;22.13;53.57
65376;BME280;51976;47.332;9.404;2022-08-19T05:35:49;92580.19;;;22.15;53.40
65376;BME280;51976;47.332;9.404;2022-08-19T05:38:18;92585.66;;;22.15;53.71
65376;BME280;51976;47.332;9.404;2022-08-19T05:40:43;92582.91;;;22.15;53.75
65376;BME280;51976;47.332;9.404;2022-08-19T05:43:12;92574.25;;;22.13;53.90
65376;BME280;51976;47.332;9.404;2022-08-19T05:45:41;92573.09;;;22.14;53.77
65376;BME280;51976;47.332;9.404;2022-08-19T05:48:07;92571.94;;;22.15;54.10
65376;BME280;51976;47.332;9.404;2022-08-19T05:50:35;92566.84;;;22.17;54.24
65376;BME280;51976;47.332;9.404;2022-08-19T05:53:00;92566.84;;;22.17;54.41
65376;BME280;51976;47.332;9.404;2022-08-19T05:55:28;92569.25;;;22.18;54.90
65376;BME280;51976;47.332;9.404;2022-08-19T05:57:54;92561.00;;;22.18;55.06
65376;BME280;51976;47.332;9.404;2022-08-19T06:00:19;92574.38;;;22.20;55.18
65376;BME280;51976;47.332;9.404;2022-08-19T06:02:45;92569.69;;;22.20;55.04
65376;BME280;51976;47.332;9.404;2022-08-19T06:05:10;92566.94;;;22.20;55.21
65376;BME280;51976;47.332;9.404;2022-08-19T06:07:37;92573.22;;;22.21;55.48
65376;BME280;51976;47.332;9.404;2022-08-19T06:10:08;92575.97;;;22.21;55.72
65376;BME280;51976;47.332;9.404;2022-08-19T06:12:35;92569.31;;;22.22;55.63
65376;BME280;51976;47.332;9.404;2022-08-19T06:15:08;92570.91;;;22.23;55.76
65376;BME280;51976;47.332;9.404;2022-08-19T06:17:33;92564.63;;;22.22;56.05
65376;BME280;51976;47.332;9.404;2022-08-19T06:20:01;92572.50;;;22.24;55.92
65376;BME280;51976;47.332;9.404;2022-08-19T06:22:27;92579.59;;;22.25;56.29
65376;BME280;51976;47.332;9.404;2022-08-19T06:24:53;92570.19;;;22.26;56.03
65376;BME280;51976;47.332;9.404;2022-08-19T06:27:19;92572.13;;;22.25;56.32
65376;BME280;51976;47.332;9.404;2022-08-19T06:29:45;92564.69;;;22.26;56.19
65376;BME280;51976;47.332;9.404;2022-08-19T06:32:12;92568.59;;;22.25;56.33
65376;BME280;51976;47.332;9.404;2022-08-19T06:34:39;92570.56;;;22.24;56.54
65376;BME280;51976;47.332;9.404;2022-08-19T06:37:06;92576.47;;;22.26;56.74
65376;BME280;51976;47.332;9.404;2022-08-19T06:39:35;92576.13;;;22.28;56.56
65376;BME280;51976;47.332;9.404;2022-08-19T06:42:03;92576.47;;;22.26;56.62
65376;BME280;51976;47.332;9.404;2022-08-19T06:44:34;92580.81;;;22.27;56.81
65376;BME280;51976;47.332;9.404;2022-08-19T06:47:03;92581.59;;;22.28;56.85
65376;BME280;51976;47.332;9.404;2022-08-19T06:49:29;92584.78;;;22.30;56.83
65376;BME280;51976;47.332;9.404;2022-08-19T06:51:56;92592.22;;;22.29;56.86
65376;BME280;51976;47.332;9.404;2022-08-19T06:54:24;92589.50;;;22.29;57.13
65376;BME280;51976;47.332;9.404;2022-08-19T06:56:49;92582.75;;;22.27;56.88
65376;BME280;51976;47.332;9.404;2022-08-19T06:59:18;92583.19;;;22.29;56.99
65376;BME280;51976;47.332;9.404;2022-08-19T07:01:47;92584.00;;;22.29;57.24
65376;BME280;51976;47.332;9.404;2022-08-19T07:04:16;92574.97;;;22.29;57.24
65376;BME280;51976;47.332;9.404;2022-08-19T07:06:43;92582.03;;;22.30;57.25
65376;BME280;51976;47.332;9.404;2022-08-19T07:09:12;92584.44;;;22.32;57.35
65376;BME280;51976;47.332;9.404;2022-08-19T07:11:39;92588.34;;;22.31;57.40
65376;BME280;51976;47.332;9.404;2022-08-19T07:14:08;92580.53;;;22.33;57.25
65376;BME280;51976;47.332;9.404;2022-08-19T07:16:34;92578.94;;;22.32;57.30
65376;BME280;51976;47.332;9.404;2022-08-19T07:18:59;92585.66;;;22.34;57.28
65376;BME280;51976;47.332;9.404;2022-08-19T07:21:27;92580.53;;;22.33;57.35
65376;BME280;51976;47.332;9.404;2022-08-19T07:23:53;92576.63;;;22.34;57.32
65376;BME280;51976;47.332;9.404;2022-08-19T07:26:27;92580.53;;;22.33;57.19
65376;BME280;51976;47.332;9.404;2022-08-19T07:28:54;92589.22;;;22.35;56.84
65376;BME280;51976;47.332;9.404;2022-08-19T07:31:23;92584.50;;;22.35;56.86
65376;BME280;51976;47.332;9.404;2022-08-19T07:33:50;92585.66;;;22.34;57.06
65376;BME280;51976;47.332;9.404;2022-08-19T07:36:19;92596.22;;;22.32;57.22
65376;BME280;51976;47.332;9.404;2022-08-19T07:38:48;92598.53;;;22.30;57.04
65376;BME280;51976;47.332;9.404;2022-08-19T07:41:17;92591.09;;;22.31;56.83
65376;BME280;51976;47.332;9.404;2022-08-19T07:43:44;92596.13;;;22.28;57.23
65376;BME280;51976;47.332;9.404;2022-08-19T07:46:11;92597.28;;;22.27;57.24
65376;BME280;51976;47.332;9.404;2022-08-19T07:48:40;92604.72;;;22.27;56.87
65376;BME280;51976;47.332;9.404;2022-08-19T07:51:07;92595.69;;;22.26;56.84
65376;BME280;51976;47.332;9.404;2022-08-19T07:53:34;92603.13;;;22.26;56.82
65376;BME280;51976;47.332;9.404;2022-08-19T07:56:01;92604.28;;;22.25;56.68
65376;BME280;51976;47.332;9.404;2022-08-19T07:58:35;92614.13;;;22.26;56.65
65376;BME280;51976;47.332;9.404;2022-08-19T08:01:01;92622.38;;;22.26;56.81
65376;BME280;51976;47.332;9.404;2022-08-19T08:03:27;92619.63;;;22.26;56.88
65376;BME280;51976;47.332;9.404;2022-08-19T08:06:14;92623.50;;;22.25;56.65
65376;BME280;51976;47.332;9.404;2022-08-19T08:09:01;92617.22;;;22.24;56.46
65376;BME280;51976;47.332;9.404;2022-08-19T08:11:42;92621.94;;;22.24;56.42
65376;BME280;51976;47.332;9.404;2022-08-19T08:14:08;92623.88;;;22.23;56.68
65376;BME280;51976;47.332;9.404;2022-08-19T08:16:38;92619.19;;;22.24;56.32
65376;BME280;51976;47.332;9.404;2022-08-19T08:19:06;92625.81;;;22.23;56.34
65376;BME280;51976;47.332;9.404;2022-08-19T08:21:33;92631.31;;;22.23;56.39
65376;BME280;51976;47.332;9.404;2022-08-19T08:23:59;92629.72;;;22.22;56.41
65376;BME280;51976;47.332;9.404;2022-08-19T08:26:25;92629.72;;;22.22;56.36
65376;BME280;51976;47.332;9.404;2022-08-19T08:28:51;92633.25;;;22.22;56.52
65376;BME280;51976;47.332;9.404;2022-08-19T08:31:17;92630.88;;;22.21;56.46
65376;BME280;51976;47.332;9.404;2022-08-19T08:33:46;92636.72;;;22.19;56.34
65376;BME280;51976;47.332;9.404;2022-08-19T08:36:13;92634.78;;;22.20;56.58
65376;BME280;51976;47.332;9.404;2022-08-19T08:38:39;92649.31;;;22.20;56.35
65376;BME280;51976;47.332;9.404;2022-08-19T08:41:18;92648.50;;;22.20;56.39
65376;BME280;51976;47.332;9.404;2022-08-19T08:43:50;92643.72;;;22.17;56.41
65376;BME280;51976;47.332;9.404;2022-08-19T08:46:35;92645.31;;;22.18;56.53
65376;BME280;51976;47.332;9.404;2022-08-19T08:49:26;92663.38;;;22.19;56.37
65376;BME280;51976;47.332;9.404;2022-08-19T08:52:05;92662.59;;;22.18;56.53
65376;BME280;51976;47.332;9.404;2022-08-19T08:54:39;92663.75;;;22.17;56.28
65376;BME280;51976;47.332;9.404;2022-08-19T08:57:12;92668.09;;;22.18;56.51
65376;BME280;51976;47.332;9.404;2022-08-19T08:59:43;92674.38;;;22.19;56.43
65376;BME280;51976;47.332;9.404;2022-08-19T09:02:13;92678.25;;;22.18;56.46
65376;BME280;51976;47.332;9.404;2022-08-19T09:04:38;92682.59;;;22.19;56.51
65376;BME280;51976;47.332;9.404;2022-08-19T09:07:41;92678.25;;;22.18;56.34
65376;BME280;51976;47.332;9.404;2022-08-19T09:10:28;92690.41;;;22.17;56.37
65376;BME280;51976;47.332;9.404;2022-08-19T09:13:26;92697.47;;;22.18;56.34
65376;BME280;51976;47.332;9.404;2022-08-19T09:16:12;92690.41;;;22.17;56.40
65376;BME280;51976;47.332;9.404;2022-08-19T09:18:49;92692.34;;;22.16;56.83
65376;BME280;51976;47.332;9.404;2022-08-19T09:21:18;92697.47;;;22.18;56.84
65376;BME280;51976;47.332;9.404;2022-08-19T09:23:44;92682.97;;;22.17;56.87
65376;BME280;51976;47.332;9.404;2022-08-19T09:26:12;92681.38;;;22.16;56.96
65376;BME280;51976;47.332;9.404;2022-08-19T09:28:39;92693.16;;;22.17;57.01
65376;BME280;51976;47.332;9.404;2022-08-19T09:31:08;92697.47;;;22.18;57.31
65376;BME280;51976;47.332;9.404;2022-08-19T09:33:36;92694.75;;;22.18;57.00
65376;BME280;51976;47.332;9.404;2022-08-19T09:36:09;92687.31;;;22.18;57.26
65376;BME280;51976;47.332;9.404;2022-08-19T09:38:35;92691.63;;;22.19;56.95
65376;BME280;51976;47.332;9.404;2022-08-19T09:41:05;92688.09;;;22.19;57.19
65376;BME280;51976;47.332;9.404;2022-08-19T09:43:32;92689.69;;;22.20;57.12
65376;BME280;51976;47.332;9.404;2022-08-19T09:46:03;92686.94;;;22.20;57.15
65376;BME280;51976;47.332;9.404;2022-08-19T09:48:31;92688.91;;;22.19;57.24
65376;BME280;51976;47.332;9.404;2022-08-19T09:51:03;92697.94;;;22.20;57.39
65376;BME280;51976;47.332;9.404;2022-08-19T09:53:28;92701.47;;;22.20;57.41
65376;BME280;51976;47.332;9.404;2022-08-19T09:55:55;92704.22;;;22.20;57.24
65376;BME280;51976;47.332;9.404;2022-08-19T09:58:20;92699.88;;;22.19;57.41
65376;BME280;51976;47.332;9.404;2022-08-19T10:00:46;92685.34;;;22.19;57.41
65376;BME280;51976;47.332;9.404;2022-08-19T10:03:11;92684.56;;;22.18;57.39
65376;BME280;51976;47.332;9.404;2022-08-19T10:05:37;92684.56;;;22.18;57.46
65376;BME280;51976;47.332;9.404;2022-08-19T10:08:13;92685.72;;;22.17;57.31
65376;BME280;51976;47.332;9.404;2022-08-19T10:10:39;92686.84;;;22.16;57.24
65376;BME280;51976;47.332;9.404;2022-08-19T10:13:04;92684.56;;;22.18;57.29
65376;BME280;51976;47.332;9.404;2022-08-19T10:15:29;92685.34;;;22.19;57.14
65376;BME280;51976;47.332;9.404;2022-08-19T10:17:55;92688.44;;;22.17;57.11
65376;BME280;51976;47.332;9.404;2022-08-19T10:20:20;92684.91;;;22.17;56.95
65376;BME280;51976;47.332;9.404;2022-08-19T10:22:47;92682.16;;;22.17;57.15
65376;BME280;51976;47.332;9.404;2022-08-19T10:25:13;92680.22;;;22.17;57.10
65376;BME280;51976;47.332;9.404;2022-08-19T10:27:41;92692.78;;;22.18;57.15
65376;BME280;51976;47.332;9.404;2022-08-19T10:30:07;92682.97;;;22.17;56.98
65376;BME280;51976;47.332;9.404;2022-08-19T10:32:35;92687.31;;;22.18;56.95
65376;BME280;51976;47.332;9.404;2022-08-19T10:35:02;92692.34;;;22.16;56.84
65376;BME280;51976;47.332;9.404;2022-08-19T10:37:31;92695.88;;;22.17;56.98
65376;BME280;51976;47.332;9.404;2022-08-19T10:39:58;92698.63;;;22.17;56.92
65376;BME280;51976;47.332;9.404;2022-08-19T10:42:23;92700.22;;;22.18;56.58
65376;BME280;51976;47.332;9.404;2022-08-19T10:44:49;92696.69;;;22.17;56.72
65376;BME280;51976;47.332;9.404;2022-08-19T10:47:15;92687.66;;;22.17;56.89
65376;BME280;51976;47.332;9.404;2022-08-19T10:49:40;92686.06;;;22.16;56.84
65376;BME280;51976;47.332;9.404;2022-08-19T10:52:26;92688.03;;;22.15;56.93
65376;BME280;51976;47.332;9.404;2022-08-19T10:55:02;92690.00;;;22.15;56.90
65376;BME280;51976;47.332;9.404;2022-08-19T10:57:47;92707.25;;;22.15;56.88
65376;BME280;51976;47.332;9.404;2022-08-19T11:00:13;92707.25;;;22.15;56.84
65376;BME280;51976;47.332;9.404;2022-08-19T11:02:39;92704.88;;;22.14;56.92
65376;BME280;51976;47.332;9.404;2022-08-19T11:05:05;92711.16;;;22.14;56.96
65376;BME280;51976;47.332;9.404;2022-08-19T11:07:32;92726.84;;;22.14;56.84
65376;BME280;51976;47.332;9.404;2022-08-19T11:09:57;92715.41;;;22.12;56.94
65376;BME280;51976;47.332;9.404;2022-08-19T11:12:22;92709.22;;;22.15;56.73
65376;BME280;51976;47.332;9.404;2022-08-19T11:14:49;92706.47;;;22.15;57.03
65376;BME280;51976;47.332;9.404;2022-08-19T11:17:15;92711.22;;;22.18;57.05
65376;BME280;51976;47.332;9.404;2022-08-19T11:19:41;92708.13;;;22.19;56.98
65376;BME280;51976;47.332;9.404;2022-08-19T11:22:08;92713.59;;;22.19;57.33
65376;BME280;51976;47.332;9.404;2022-08-19T11:24:35;92710.41;;;22.17;57.22
65376;BME280;51976;47.332;9.404;2022-08-19T11:27:06;92718.28;;;22.19;57.36
65376;BME280;51976;47.332;9.404;2022-08-19T11:29:35;92719.88;;;22.20;57.19
65376;BME280;51976;47.332;9.404;2022-08-19T11:32:05;92705.00;;;22.21;57.29
65376;BME280;51976;47.332;9.404;2022-08-19T11:34:31;92717.50;;;22.18;57.17
65376;BME280;51976;47.332;9.404;2022-08-19T11:36:56;92721.75;;;22.16;56.79
65376;BME280;51976;47.332;9.404;2022-08-19T11:39:25;92717.34;;;22.11;57.01
65376;BME280;51976;47.332;9.404;2022-08-19T11:41:51;92726.38;;;22.12;56.89
65376;BME280;51976;47.332;9.404;2022-08-19T11:44:17;92728.34;;;22.11;56.86
65376;BME280;51976;47.332;9.404;2022-08-19T11:46:44;92731.44;;;22.10;56.96
65376;BME280;51976;47.332;9.404;2022-08-19T11:49:14;92725.94;;;22.10;56.77
65376;BME280;51976;47.332;9.404;2022-08-19T11:51:41;92722.75;;;22.08;56.88
65376;BME280;51976;47.332;9.404;2022-08-19T11:54:08;92718.88;;;22.09;56.89
65376;BME280;51976;47.332;9.404;2022-08-19T11:56:34;92727.09;;;22.09;57.05
65376;BME280;51976;47.332;9.404;2022-08-19T11:59:01;92735.34;;;22.09;56.79
65376;BME280;51976;47.332;9.404;2022-08-19T12:01:27;92736.13;;;22.09;56.74
65376;BME280;51976;47.332;9.404;2022-08-19T12:03:54;92729.84;;;22.09;56.80
65376;BME280;51976;47.332;9.404;2022-08-19T12:06:23;92724.34;;;22.09;56.52
65376;BME280;51976;47.332;9.404;2022-08-19T12:08:51;92728.25;;;22.08;56.66
65376;BME280;51976;47.332;9.404;2022-08-19T12:11:16;92732.59;;;22.09;56.65
65376;BME280;51976;47.332;9.404;2022-08-19T12:13:42;92728.25;;;22.08;56.57
65376;BME280;51976;47.332;9.404;2022-08-19T12:16:14;92740.81;;;22.09;56.73
65376;BME280;51976;47.332;9.404;2022-08-19T12:18:41;92729.06;;;22.08;56.52
65376;BME280;51976;47.332;9.404;2022-08-19T12:21:12;92739.22;;;22.08;56.67
65376;BME280;51976;47.332;9.404;2022-08-19T12:23:40;92744.72;;;22.08;56.59
65376;BME280;51976;47.332;9.404;2022-08-19T12:26:05;92742.34;;;22.06;56.51
65376;BME280;51976;47.332;9.404;2022-08-19T12:28:31;92750.56;;;22.06;56.12
65376;BME280;51976;47.332;9.404;2022-08-19T12:30:56;92756.84;;;22.07;56.31
65376;BME280;51976;47.332;9.404;2022-08-19T12:33:22;92761.63;;;22.10;56.16
65376;BME280;51976;47.332;9.404;2022-08-19T12:35:51;92765.97;;;22.11;56.24
65376;BME280;51976;47.332;9.404;2022-08-19T12:38:16;92768.44;;;22.16;56.01
65376;BME280;51976;47.332;9.404;2022-08-19T12:40:46;92767.72;;;22.19;56.39
65376;BME280;51976;47.332;9.404;2022-08-19T12:43:12;92754.69;;;22.16;56.44
65376;BME280;51976;47.332;9.404;2022-08-19T12:45:37;92761.50;;;22.22;56.37
65376;BME280;51976;47.332;9.404;2022-08-19T12:48:03;92768.59;;;22.23;56.60
65376;BME280;51976;47.332;9.404;2022-08-19T12:50:30;92774.09;;;22.23;56.65
65376;BME280;51976;47.332;9.404;2022-08-19T12:52:56;92780.03;;;22.25;56.61
65376;BME280;51976;47.332;9.404;2022-08-19T12:55:22;92778.09;;;22.25;56.56
65376;BME280;51976;47.332;9.404;2022-08-19T12:57:48;92774.53;;;22.25;56.89
65376;BME280;51976;47.332;9.404;2022-08-19T13:00:18;92785.97;;;22.27;56.92
65376;BME280;51976;47.332;9.404;2022-08-19T13:02:48;92785.97;;;22.27;57.10
65376;BME280;51976;47.332;9.404;2022-08-19T13:05:23;92777.38;;;22.28;56.97